createdAt,value
2018-05-12T00:00:55.683Z,44.37
2018-05-12T00:03:22.012Z,44.32
2018-05-12T00:05:48.382Z,44.39
2018-05-12T00:08:14.824Z,44.29
2018-05-12T00:10:41.209Z,44.34
2018-05-12T00:13:07.647Z,44.44
2018-05-12T00:15:34.002Z,44.26
2018-05-12T00:18:00.497Z,44.32
2018-05-12T00:20:27.315Z,44.32
2018-05-12T00:22:53.652Z,44.31
2018-05-12T00:25:19.984Z,44.28
2018-05-12T00:27:46.328Z,44.39
2018-05-12T00:30:12.905Z,44.29
2018-05-12T00:32:39.242Z,44.29
2018-05-12T00:35:05.629Z,44.39
2018-05-12T00:37:32.165Z,44.32
2018-05-12T00:39:58.584Z,44.42
2018-05-12T00:42:24.916Z,44.48
2018-05-12T00:44:51.318Z,44.39
2018-05-12T00:47:17.676Z,44.38
2018-05-12T00:49:44.188Z,44.34
2018-05-12T00:52:10.638Z,44.26
2018-05-12T00:54:36.984Z,44.48
2018-05-12T00:57:03.413Z,44.29
2018-05-12T00:59:29.783Z,44.35
2018-05-12T01:01:56.188Z,44.28
2018-05-12T01:04:22.605Z,44.21
2018-05-12T01:06:48.975Z,44.17
2018-05-12T01:09:15.396Z,44.28
2018-05-12T01:11:41.752Z,44.21
2018-05-12T01:14:08.127Z,44.32
2018-05-12T01:16:34.725Z,44.32
2018-05-12T01:19:01.152Z,44.17
2018-05-12T01:21:27.620Z,44.10
2018-05-12T01:23:53.949Z,44.16
2018-05-12T01:26:20.474Z,44.35
2018-05-12T01:28:46.869Z,44.15
2018-05-12T01:31:13.196Z,44.29
2018-05-12T01:33:39.592Z,44.16
2018-05-12T01:36:05.990Z,44.14
2018-05-12T01:38:35.450Z,44.15
2018-05-12T01:41:01.815Z,44.33
2018-05-12T01:43:28.173Z,44.26
2018-05-12T01:45:54.591Z,44.31
2018-05-12T01:48:20.910Z,44.30
2018-05-12T01:50:47.269Z,44.39
2018-05-12T01:53:13.592Z,44.34
2018-05-12T01:55:39.904Z,44.43
2018-05-12T01:58:06.259Z,44.45
2018-05-12T02:00:32.625Z,44.51
2018-05-12T02:02:58.934Z,44.40
2018-05-12T02:05:25.264Z,44.32
2018-05-12T02:07:51.588Z,44.30
2018-05-12T02:10:17.958Z,44.42
2018-05-12T02:12:44.280Z,44.57
2018-05-12T02:15:10.603Z,44.48
2018-05-12T02:17:36.964Z,44.52
2018-05-12T02:20:03.286Z,44.44
2018-05-12T02:22:29.620Z,44.45
2018-05-12T02:24:55.980Z,44.50
2018-05-12T02:27:22.308Z,44.42
2018-05-12T02:29:48.629Z,44.61
2018-05-12T02:32:14.965Z,44.61
2018-05-12T02:34:41.339Z,44.49
2018-05-12T02:37:07.660Z,44.52
2018-05-12T02:39:33.990Z,44.45
2018-05-12T02:42:00.304Z,44.54
2018-05-12T02:44:26.659Z,44.67
2018-05-12T02:46:52.973Z,44.51
2018-05-12T02:49:19.417Z,44.65
2018-05-12T02:51:45.788Z,44.50
2018-05-12T02:54:12.112Z,44.51
2018-05-12T02:56:38.476Z,44.48
2018-05-12T02:59:04.845Z,44.54
2018-05-12T03:01:31.176Z,44.54
2018-05-12T03:03:57.501Z,44.59
2018-05-12T03:06:23.881Z,44.54
2018-05-12T03:08:50.199Z,44.49
2018-05-12T03:11:16.515Z,44.57
2018-05-12T03:13:42.857Z,44.67
2018-05-12T03:16:09.200Z,44.70
2018-05-12T03:18:35.515Z,44.69
2018-05-12T03:21:01.838Z,44.61
2018-05-12T03:23:28.157Z,44.64
2018-05-12T03:25:54.514Z,44.67
2018-05-12T03:30:53.318Z,44.80
2018-05-12T03:33:19.640Z,44.89
2018-05-12T03:35:45.968Z,44.90
2018-05-12T03:38:12.343Z,44.80
2018-05-12T03:40:40.960Z,44.78
2018-05-12T03:43:07.315Z,44.78
2018-05-12T03:45:33.733Z,44.91
2018-05-12T03:48:00.054Z,44.91
2018-05-12T03:50:26.449Z,44.90
2018-05-12T03:52:52.773Z,44.85
2018-05-12T03:55:19.114Z,44.82
2018-05-12T03:57:52.791Z,44.75
2018-05-12T04:00:19.274Z,44.94
2018-05-12T04:02:45.870Z,44.93
2018-05-12T04:05:12.401Z,44.96
2018-05-12T04:07:38.724Z,44.91
2018-05-12T04:10:05.157Z,44.90
2018-05-12T04:12:31.589Z,44.74
2018-05-12T04:14:58.222Z,44.92
2018-05-12T04:17:24.656Z,44.90
2018-05-12T04:19:51.103Z,44.97
2018-05-12T04:22:17.464Z,44.87
2018-05-12T04:24:43.890Z,44.78
2018-05-12T04:27:10.321Z,44.70
2018-05-12T04:29:36.655Z,45.05
2018-05-12T04:32:03.016Z,44.99
2018-05-12T04:34:29.395Z,44.90
2018-05-12T04:36:56.230Z,44.82
2018-05-12T04:39:22.624Z,44.69
2018-05-12T04:41:48.957Z,44.51
2018-05-12T04:44:15.299Z,44.76
2018-05-12T04:46:41.774Z,44.76
2018-05-12T04:49:08.236Z,44.61
2018-05-12T04:51:34.597Z,44.54
2018-05-12T04:54:00.957Z,44.47
2018-05-12T04:56:27.283Z,44.26
2018-05-12T04:58:53.741Z,44.22
2018-05-12T05:01:20.082Z,44.08
2018-05-12T05:03:46.404Z,43.96
2018-05-12T05:06:12.775Z,43.91
2018-05-12T05:08:39.113Z,43.80
2018-05-12T05:11:05.477Z,43.87
2018-05-12T05:13:31.828Z,43.79
2018-05-12T05:15:58.257Z,43.60
2018-05-12T05:18:24.588Z,43.47
2018-05-12T05:20:51.145Z,43.44
2018-05-12T05:23:17.468Z,43.35
2018-05-12T05:25:43.794Z,43.28
2018-05-12T05:28:10.171Z,43.20
2018-05-12T05:30:36.576Z,43.08
2018-05-12T05:33:02.919Z,43.13
2018-05-12T05:35:29.265Z,43.03
2018-05-12T05:37:55.600Z,43.00
2018-05-12T05:40:22.031Z,42.98
2018-05-12T05:42:48.367Z,42.98
2018-05-12T05:45:14.756Z,43.11
2018-05-12T05:47:41.165Z,43.00
2018-05-12T05:50:07.579Z,43.18
2018-05-12T05:52:33.967Z,43.67
2018-05-12T05:55:00.358Z,43.63
2018-05-12T05:57:26.743Z,43.26
2018-05-12T05:59:53.073Z,42.83
2018-05-12T06:02:19.418Z,42.59
2018-05-12T06:04:45.835Z,42.42
2018-05-12T06:07:12.431Z,42.03
2018-05-12T06:09:38.688Z,41.86
2018-05-12T06:12:05.004Z,41.62
2018-05-12T06:14:31.380Z,41.94
2018-05-12T06:16:57.729Z,41.80
2018-05-12T06:19:24.144Z,41.63
2018-05-12T06:21:50.552Z,41.59
2018-05-12T06:24:16.887Z,41.61
2018-05-12T06:26:43.304Z,41.58
2018-05-12T06:29:09.650Z,41.65
2018-05-12T06:31:36.063Z,41.43
2018-05-12T06:34:02.492Z,41.37
2018-05-12T06:36:28.931Z,41.35
2018-05-12T06:38:55.339Z,41.31
2018-05-12T06:41:21.667Z,41.31
2018-05-12T06:43:47.998Z,41.24
2018-05-12T06:46:14.351Z,41.19
2018-05-12T06:48:40.737Z,41.15
2018-05-12T06:51:07.126Z,41.10
2018-05-12T06:53:33.493Z,41.06
2018-05-12T06:55:59.869Z,41.00
2018-05-12T06:58:26.297Z,40.93
2018-05-12T07:00:52.652Z,40.89
2018-05-12T07:03:19.004Z,41.20
2018-05-12T07:05:45.412Z,41.07
2018-05-12T07:08:11.908Z,41.09
2018-05-12T07:10:39.323Z,40.91
2018-05-12T07:13:05.700Z,40.81
2018-05-12T07:15:32.069Z,40.63
2018-05-12T07:17:58.449Z,40.65
2018-05-12T07:20:24.888Z,40.63
2018-05-12T07:22:51.334Z,40.53
2018-05-12T07:25:17.714Z,40.53
2018-05-12T07:27:44.088Z,40.52
2018-05-12T07:30:10.512Z,40.55
2018-05-12T07:32:36.920Z,40.70
2018-05-12T07:35:03.301Z,40.68
2018-05-12T07:37:29.661Z,40.51
2018-05-12T07:39:56.057Z,40.43
2018-05-12T07:42:22.489Z,40.43
2018-05-12T07:44:48.856Z,40.29
2018-05-12T07:47:15.249Z,40.32
2018-05-12T07:49:41.912Z,40.33
2018-05-12T07:52:08.228Z,40.38
2018-05-12T07:54:34.578Z,40.28
2018-05-12T07:57:00.981Z,40.29
2018-05-12T07:59:27.390Z,40.42
2018-05-12T08:01:53.715Z,40.42
2018-05-12T08:04:20.096Z,40.33
2018-05-12T08:06:46.563Z,40.31
2018-05-12T08:09:12.940Z,40.31
2018-05-12T08:11:39.266Z,40.28
2018-05-12T08:14:05.609Z,40.30
2018-05-12T08:16:31.943Z,40.33
2018-05-12T08:18:58.269Z,40.26
2018-05-12T08:21:24.740Z,40.24
2018-05-12T08:23:51.136Z,40.29
2018-05-12T08:26:17.530Z,40.22
2018-05-12T08:28:43.924Z,40.19
2018-05-12T08:31:10.392Z,40.17
2018-05-12T08:33:36.813Z,40.19
2018-05-12T08:36:03.146Z,40.22
2018-05-12T08:38:29.486Z,40.22
2018-05-12T08:40:55.841Z,40.17
2018-05-12T08:43:22.212Z,40.12
2018-05-12T08:45:48.608Z,40.07
2018-05-12T08:48:14.974Z,40.07
2018-05-12T08:50:41.380Z,40.00
2018-05-12T08:53:07.825Z,40.01
2018-05-12T08:55:34.190Z,39.93
2018-05-12T08:58:00.565Z,39.86
2018-05-12T09:00:26.927Z,39.88
2018-05-12T09:02:53.284Z,39.89
2018-05-12T09:05:19.653Z,40.04
2018-05-12T09:07:46.089Z,39.94
2018-05-12T09:10:12.649Z,39.91
2018-05-12T09:12:38.985Z,39.88
2018-05-12T09:15:05.403Z,39.80
2018-05-12T09:17:31.816Z,39.82
2018-05-12T09:19:58.196Z,39.86
2018-05-12T09:22:24.523Z,39.81
2018-05-12T09:24:50.914Z,39.73
2018-05-12T09:27:17.287Z,39.73
2018-05-12T09:29:43.778Z,39.73
2018-05-12T09:32:10.130Z,39.76
2018-05-12T09:34:36.540Z,39.76
2018-05-12T09:37:02.851Z,39.70
2018-05-12T09:39:29.232Z,39.60
2018-05-12T09:41:55.611Z,39.52
2018-05-12T09:44:21.952Z,39.52
2018-05-12T09:46:48.351Z,39.41
2018-05-12T09:49:14.709Z,39.43
2018-05-12T09:51:41.064Z,39.36
2018-05-12T09:54:07.597Z,39.30
2018-05-12T09:56:33.983Z,39.30
2018-05-12T09:59:00.412Z,39.25
2018-05-12T10:01:26.760Z,39.24
2018-05-12T10:03:53.213Z,39.14
2018-05-12T10:06:19.548Z,39.04
2018-05-12T10:08:45.942Z,39.05
2018-05-12T10:11:12.353Z,39.16
2018-05-12T10:13:38.674Z,38.97
2018-05-12T10:16:05.085Z,38.93
2018-05-12T10:18:31.477Z,38.94
2018-05-12T10:20:57.962Z,38.93
2018-05-12T10:23:24.318Z,38.79
2018-05-12T10:25:50.726Z,38.82
2018-05-12T10:28:17.104Z,38.75
2018-05-12T10:30:43.443Z,38.70
2018-05-12T10:33:09.827Z,38.69
2018-05-12T10:35:36.179Z,38.74
2018-05-12T10:38:02.567Z,38.59
2018-05-12T10:40:28.937Z,38.55
2018-05-12T10:42:55.324Z,38.48
2018-05-12T10:45:21.713Z,38.42
2018-05-12T10:47:48.109Z,38.38
2018-05-12T10:50:14.431Z,38.27
2018-05-12T10:52:40.885Z,38.16
2018-05-12T10:55:07.263Z,38.19
2018-05-12T10:57:33.595Z,38.00
2018-05-12T11:00:00.027Z,37.90
2018-05-12T11:02:26.408Z,37.86
2018-05-12T11:04:52.840Z,37.77
2018-05-12T11:07:19.271Z,37.69
2018-05-12T11:09:45.623Z,37.69
2018-05-12T11:12:12.027Z,37.62
2018-05-12T11:14:38.460Z,37.66
2018-05-12T11:17:04.780Z,37.70
2018-05-12T11:19:31.169Z,37.53
2018-05-12T11:21:57.698Z,37.41
2018-05-12T11:24:24.088Z,37.35
2018-05-12T11:26:50.597Z,37.29
2018-05-12T11:29:16.972Z,37.27
2018-05-12T11:31:43.465Z,37.31
2018-05-12T11:34:09.867Z,37.27
2018-05-12T11:36:36.223Z,37.33
2018-05-12T11:39:02.661Z,37.20
2018-05-12T11:41:29.024Z,37.22
2018-05-12T11:43:55.507Z,37.14
2018-05-12T11:46:21.879Z,37.23
2018-05-12T11:48:48.223Z,37.23
2018-05-12T11:51:14.556Z,37.30
2018-05-12T11:53:40.957Z,37.14
2018-05-12T11:56:07.366Z,37.25
2018-05-12T11:58:33.750Z,37.15
2018-05-12T12:01:00.137Z,37.23
2018-05-12T12:03:26.540Z,37.21
2018-05-12T12:05:52.956Z,37.16
2018-05-12T12:08:19.328Z,37.08
2018-05-12T12:10:45.658Z,37.25
2018-05-12T12:13:12.098Z,37.34
2018-05-12T12:15:38.458Z,37.39
2018-05-12T12:18:04.828Z,37.41
2018-05-12T12:20:31.258Z,37.46
2018-05-12T12:22:57.640Z,37.48
2018-05-12T12:25:23.967Z,37.47
2018-05-12T12:27:50.334Z,37.59
2018-05-12T12:30:16.678Z,37.76
2018-05-12T12:32:43.144Z,37.55
2018-05-12T12:35:09.522Z,37.71
2018-05-12T12:37:35.880Z,37.57
2018-05-12T12:40:02.305Z,37.60
2018-05-12T12:42:28.749Z,37.57
2018-05-12T12:44:55.118Z,37.71
2018-05-12T12:47:21.507Z,37.70
2018-05-12T12:49:47.836Z,37.72
2018-05-12T12:52:14.198Z,37.81
2018-05-12T12:54:40.566Z,37.72
2018-05-12T12:57:06.915Z,37.74
2018-05-12T12:59:33.272Z,37.77
2018-05-12T13:01:59.633Z,37.84
2018-05-12T13:04:26.049Z,37.85
2018-05-12T13:06:52.401Z,37.79
2018-05-12T13:09:18.795Z,37.76
2018-05-12T13:11:45.140Z,37.77
2018-05-12T13:14:11.697Z,37.74
2018-05-12T13:16:38.066Z,37.69
2018-05-12T13:19:04.464Z,37.83
2018-05-12T13:21:30.840Z,37.84
2018-05-12T13:23:57.232Z,37.93
2018-05-12T13:26:23.644Z,37.88
2018-05-12T13:28:50.046Z,37.85
2018-05-12T13:31:16.397Z,37.89
2018-05-12T13:33:42.742Z,37.88
2018-05-12T13:36:09.104Z,37.82
2018-05-12T13:38:35.449Z,37.80
2018-05-12T13:41:01.816Z,37.80
2018-05-12T13:43:28.195Z,37.75
2018-05-12T13:45:54.559Z,37.72
2018-05-12T13:48:20.899Z,37.76
2018-05-12T13:50:47.288Z,37.85
2018-05-12T13:53:13.684Z,37.78
2018-05-12T13:55:40.099Z,37.80
2018-05-12T13:58:06.518Z,37.77
2018-05-12T14:00:32.848Z,37.72
2018-05-12T14:02:59.275Z,37.71
2018-05-12T14:05:25.714Z,37.64
2018-05-12T14:07:52.050Z,37.67
2018-05-12T14:10:18.421Z,37.67
2018-05-12T14:12:44.767Z,37.64
2018-05-12T14:15:11.210Z,37.66
2018-05-12T14:17:37.685Z,37.52
2018-05-12T14:20:04.060Z,37.55
2018-05-12T14:22:30.386Z,37.57
2018-05-12T14:24:56.710Z,37.54
2018-05-12T14:27:23.085Z,37.53
2018-05-12T14:29:49.433Z,37.55
2018-05-12T14:32:15.745Z,37.54
2018-05-12T14:34:42.203Z,37.54
2018-05-12T14:37:08.566Z,37.62
2018-05-12T14:39:34.885Z,37.85
2018-05-12T14:42:01.285Z,37.73
2018-05-12T14:44:27.606Z,37.49
2018-05-12T14:46:53.924Z,37.80
2018-05-12T14:49:20.320Z,38.00
2018-05-12T14:51:46.665Z,38.69
2018-05-12T14:54:13.012Z,38.89
2018-05-12T14:56:39.332Z,39.43
2018-05-12T14:59:05.707Z,39.20
2018-05-12T15:01:32.041Z,39.32
2018-05-12T15:03:58.437Z,39.16
2018-05-12T15:06:25.036Z,39.12
2018-05-12T15:08:51.423Z,39.40
2018-05-12T15:11:17.793Z,39.31
2018-05-12T15:13:44.101Z,39.27
2018-05-12T15:16:10.445Z,39.38
2018-05-12T15:18:36.811Z,39.51
2018-05-12T15:21:03.179Z,39.46
2018-05-12T15:23:29.540Z,39.49
2018-05-12T15:25:55.954Z,39.62
2018-05-12T15:28:22.285Z,39.65
2018-05-12T15:30:48.727Z,39.68
2018-05-12T15:33:15.052Z,39.81
2018-05-12T15:35:41.377Z,39.84
2018-05-12T15:38:07.837Z,39.93
2018-05-12T15:40:34.164Z,40.04
2018-05-12T15:43:00.495Z,40.01
2018-05-12T15:45:26.865Z,40.14
2018-05-12T15:47:53.255Z,40.14
2018-05-12T15:50:19.652Z,40.23
2018-05-12T15:52:46.031Z,40.30
2018-05-12T15:55:12.404Z,40.38
2018-05-12T15:57:38.732Z,40.47
2018-05-12T16:00:05.092Z,40.59
2018-05-12T16:02:31.413Z,40.55
2018-05-12T16:04:57.823Z,40.59
2018-05-12T16:07:24.132Z,40.71
2018-05-12T16:09:50.459Z,40.81
2018-05-12T16:12:16.911Z,40.88
2018-05-12T16:14:43.268Z,40.98
2018-05-12T16:17:09.653Z,41.16
2018-05-12T16:19:35.980Z,41.28
2018-05-12T16:22:02.354Z,41.32
2018-05-12T16:24:28.686Z,41.43
2018-05-12T16:26:55.052Z,41.47
2018-05-12T16:29:21.401Z,41.56
2018-05-12T16:31:47.771Z,41.59
2018-05-12T16:34:14.110Z,41.67
2018-05-12T16:36:40.559Z,41.74
2018-05-12T16:39:06.902Z,41.83
2018-05-12T16:41:33.226Z,41.87
2018-05-12T16:43:59.635Z,41.87
2018-05-12T16:46:25.975Z,42.05
2018-05-12T16:48:52.331Z,42.16
2018-05-12T16:51:18.732Z,42.18
2018-05-12T16:53:45.065Z,42.23
2018-05-12T16:56:11.552Z,42.30
2018-05-12T16:58:38.092Z,42.41
2018-05-12T17:01:04.452Z,42.51
2018-05-12T17:03:30.820Z,42.59
2018-05-12T17:05:57.251Z,42.64
2018-05-12T17:08:23.600Z,42.66
2018-05-12T17:10:50.016Z,42.77
2018-05-12T17:13:16.414Z,42.83
2018-05-12T17:15:42.872Z,42.88
2018-05-12T17:18:09.208Z,42.96
2018-05-12T17:20:35.575Z,43.07
2018-05-12T17:23:01.935Z,43.12
2018-05-12T17:25:28.312Z,42.96
2018-05-12T17:27:54.665Z,43.19
2018-05-12T17:30:21.103Z,43.50
2018-05-12T17:32:47.441Z,43.53
2018-05-12T17:35:13.891Z,43.59
2018-05-12T17:37:40.210Z,43.66
2018-05-12T17:40:06.595Z,43.71
2018-05-12T17:42:32.967Z,43.74
2018-05-12T17:44:59.405Z,43.84
2018-05-12T17:47:25.740Z,43.90
2018-05-12T17:49:52.101Z,43.96
2018-05-12T17:52:18.540Z,44.03
2018-05-12T17:54:44.891Z,44.11
2018-05-12T17:57:11.429Z,44.20
2018-05-12T17:59:37.929Z,44.22
2018-05-12T18:02:04.305Z,44.31
2018-05-12T18:04:30.663Z,44.39
2018-05-12T18:06:56.996Z,44.49
2018-05-12T18:09:23.333Z,44.54
2018-05-12T18:11:49.720Z,44.55
2018-05-12T18:14:16.112Z,44.63
2018-05-12T18:16:42.593Z,44.68
2018-05-12T18:19:08.993Z,44.69
2018-05-12T18:21:35.317Z,44.75
2018-05-12T18:24:01.636Z,44.75
2018-05-12T18:26:27.975Z,44.90
2018-05-12T18:28:54.339Z,44.93
2018-05-12T18:31:20.752Z,44.98
2018-05-12T18:33:47.199Z,45.06
2018-05-12T18:36:13.551Z,45.04
2018-05-12T18:38:39.981Z,45.19
2018-05-12T18:41:06.248Z,45.27
2018-05-12T18:43:32.559Z,45.33
2018-05-12T18:45:58.876Z,45.37
2018-05-12T18:48:25.331Z,45.32
2018-05-12T18:50:51.696Z,45.43
2018-05-12T18:53:18.060Z,45.57
2018-05-12T18:55:44.440Z,45.54
2018-05-12T18:58:10.823Z,45.51
2018-05-12T19:00:37.176Z,45.55
2018-05-12T19:03:03.660Z,45.59
2018-05-12T19:05:29.976Z,45.74
2018-05-12T19:07:56.291Z,45.77
2018-05-12T19:10:22.656Z,45.77
2018-05-12T19:12:48.988Z,45.84
2018-05-12T19:15:15.372Z,45.90
2018-05-12T19:17:41.863Z,45.90
2018-05-12T19:20:08.313Z,45.93
2018-05-12T19:22:34.739Z,45.92
2018-05-12T19:25:01.010Z,45.94
2018-05-12T19:27:27.380Z,45.97
2018-05-12T19:29:53.713Z,46.05
2018-05-12T19:32:20.048Z,46.14
2018-05-12T19:34:46.505Z,46.11
2018-05-12T19:37:12.781Z,46.12
2018-05-12T19:39:39.122Z,46.12
2018-05-12T19:42:05.482Z,46.19
2018-05-12T19:44:31.851Z,46.26
2018-05-12T19:46:58.196Z,46.26
2018-05-12T19:49:24.517Z,46.26
2018-05-12T19:51:50.891Z,46.29
2018-05-12T19:54:17.354Z,46.31
2018-05-12T19:56:43.735Z,46.38
2018-05-12T19:59:10.073Z,46.39
2018-05-12T20:01:36.449Z,46.38
2018-05-12T20:04:02.817Z,46.39
2018-05-12T20:06:29.144Z,46.42
2018-05-12T20:08:55.587Z,46.49
2018-05-12T20:11:21.955Z,46.52
2018-05-12T20:13:48.328Z,46.57
2018-05-12T20:16:14.689Z,46.54
2018-05-12T20:18:41.022Z,46.60
2018-05-12T20:21:07.372Z,46.59
2018-05-12T20:23:33.687Z,46.57
2018-05-12T20:26:00.042Z,46.66
2018-05-12T20:28:26.391Z,46.71
2018-05-12T20:30:52.712Z,46.77
2018-05-12T20:33:19.037Z,46.72
2018-05-12T20:35:45.408Z,46.72
2018-05-12T20:38:11.981Z,46.98
2018-05-12T20:40:38.324Z,47.12
2018-05-12T20:43:04.655Z,47.18
2018-05-12T20:45:30.977Z,47.24
2018-05-12T20:47:57.341Z,47.41
2018-05-12T20:50:23.676Z,47.47
2018-05-12T20:52:50.017Z,47.46
2018-05-12T20:55:16.466Z,47.52
2018-05-12T20:57:42.797Z,47.49
2018-05-12T21:00:09.145Z,47.64
2018-05-12T21:02:35.475Z,47.76
2018-05-12T21:05:01.809Z,47.72
2018-05-12T21:07:28.319Z,47.92
2018-05-12T21:09:54.645Z,47.91
2018-05-12T21:12:20.991Z,48.01
2018-05-12T21:14:47.412Z,48.18
2018-05-12T21:17:13.808Z,48.15
2018-05-12T21:19:40.191Z,48.18
2018-05-12T21:22:06.644Z,48.41
2018-05-12T21:24:32.964Z,48.57
2018-05-12T21:26:59.325Z,48.56
2018-05-12T21:29:25.851Z,48.53
2018-05-12T21:31:52.246Z,48.75
2018-05-12T21:34:18.670Z,48.66
2018-05-12T21:36:45.003Z,48.76
2018-05-12T21:39:11.440Z,48.70
2018-05-12T21:41:37.756Z,48.93
2018-05-12T21:44:04.145Z,49.02
2018-05-12T21:46:30.475Z,48.98
2018-05-12T21:48:56.884Z,48.94
2018-05-12T21:51:23.224Z,48.84
2018-05-12T21:53:49.618Z,48.93
2018-05-12T21:56:16.024Z,49.05
2018-05-12T21:58:42.352Z,49.09
2018-05-12T22:01:08.669Z,49.00
2018-05-12T22:03:35.012Z,49.08
2018-05-12T22:06:01.353Z,49.15
2018-05-12T22:08:27.669Z,49.15
2018-05-12T22:10:54.159Z,49.27
2018-05-12T22:13:20.562Z,49.23
2018-05-12T22:15:46.928Z,49.18
2018-05-12T22:18:13.287Z,49.21
2018-05-12T22:20:39.658Z,49.19
2018-05-12T22:23:05.990Z,49.15
2018-05-12T22:25:32.326Z,49.34
2018-05-12T22:27:58.651Z,49.24
2018-05-12T22:30:25.036Z,49.38
2018-05-12T22:32:51.337Z,49.27
2018-05-12T22:35:17.786Z,49.43
2018-05-12T22:37:44.134Z,49.42
2018-05-12T22:40:10.485Z,49.39
2018-05-12T22:42:36.825Z,49.57
2018-05-12T22:45:03.204Z,49.67
2018-05-12T22:47:29.530Z,49.77
2018-05-12T22:49:55.853Z,49.51
2018-05-12T22:52:22.200Z,49.73
2018-05-12T22:54:48.546Z,49.73
2018-05-12T22:57:14.951Z,49.73
2018-05-12T22:59:41.310Z,49.56
2018-05-12T23:02:07.642Z,49.76
2018-05-12T23:04:33.968Z,49.89
2018-05-12T23:07:00.345Z,49.86
2018-05-12T23:09:26.663Z,49.85
2018-05-12T23:11:53.024Z,49.92
2018-05-12T23:14:19.361Z,49.91
2018-05-12T23:16:45.688Z,49.96
2018-05-12T23:19:12.169Z,49.97
2018-05-12T23:21:38.543Z,49.98
2018-05-12T23:24:04.936Z,50.06
2018-05-12T23:26:31.275Z,50.01
2018-05-12T23:28:57.652Z,50.05
2018-05-12T23:31:24.030Z,50.00
2018-05-12T23:33:50.398Z,50.09
2018-05-12T23:36:16.741Z,49.99
2018-05-12T23:38:43.155Z,50.06
2018-05-12T23:41:09.550Z,50.02
2018-05-12T23:43:35.923Z,49.95
2018-05-12T23:46:02.299Z,49.98
2018-05-12T23:48:28.684Z,50.05
2018-05-12T23:50:55.174Z,49.98
2018-05-12T23:53:21.571Z,50.10
2018-05-12T23:55:47.963Z,50.09
2018-05-12T23:58:14.416Z,50.16
